Flight Track Log - Related Links

Times and Time Zones

All times are in EDT time to prevent confusion due to time zone crossing. See the DAL1941 flight status page for this flight to view local times or setup timezone preferences in your user account.

Time Position Orientation Groundspeed Altitude Reporting Facility
EDT Latitude Longitude Course Direction KTS MPH feet Rate Location/Type
Tue 07:25:19 AM 42.9500 -71.4500 202° Southwest 157 181 1,500  Level KA90
Tue 07:26:43 AM 43.0333 -71.4833 344° North 249 287 3,500 2,116 Climbing KA90
Tue 07:28:00 AM 43.0736 -71.0222 71° East  Level FlightAware Approximate
Tue 07:29:00 AM 43.0213 -70.9046 144° Southeast  Level FlightAware Approximate
Tue 07:29:03 AM 43.1250 -71.3989 34° Northeast 225 259 9,400  Level Boston Center
Tue 07:30:00 AM 42.9204 -70.9017 202° Southwest  Level FlightAware Approximate
Tue 07:30:02 AM 43.0989 -71.2800 107° East 248 285 10,900  Level Boston Center
Tue 07:31:02 AM 43.0661 -71.1469 109° East 335 386 13,400 2,281 Climbing Boston Center
Tue 07:32:03 AM 43.0333 -71.0142 109° East 364 419 15,500 2,066 Climbing Boston Center
Tue 07:33:04 AM 42.9983 -70.8786 109° East 374 430 17,600 1,780 Climbing Boston Center
Tue 07:34:01 AM 42.9097 -70.8158 153° Southeast 361 415 19,000 1,424 Climbing Boston Center
Tue 07:35:02 AM 42.8253 -70.8717 206° Southwest 330 380 20,400 1,623 Climbing Boston Center
Tue 07:36:03 AM 42.7303 -70.9447 209° Southwest 348 400 22,300 1,563 Climbing Boston Center
Tue 07:37:01 AM 42.6375 -71.0178 210° Southwest 369 425 23,500 1,109 Climbing Boston Center
Tue 07:38:02 AM 42.5425 -71.0986 212° Southwest 394 453 24,500 793 Climbing Boston Center
Tue 07:39:02 AM 42.4919 -71.2378 244° Southwest 400 460 25,100 1,150 Climbing Boston Center
Tue 07:40:02 AM 42.4456 -71.3933 248° West 416 479 26,800 1,686 Climbing Boston Center
Tue 07:41:03 AM 42.4031 -71.5403 249° West 421 484 28,500 1,513 Climbing Boston Center
Tue 07:42:01 AM 42.3542 -71.6983 247° West 421 484 29,800 1,100 Climbing Boston Center
Tue 07:43:03 AM 42.2967 -71.8394 241° Southwest 421 484 30,700 1,050 Climbing Boston Center
Tue 07:44:01 AM 42.2389 -71.9775 241° Southwest 431 496 31,900 655 Climbing Boston Center
Tue 07:45:02 AM 42.1811 -72.1122 240° Southwest 431 496 32,000 50 Climbing Boston Center
Tue 07:46:01 AM 42.1208 -72.2497 239° Southwest 431 496 32,000  Level Boston Center
Tue 07:47:01 AM 42.0647 -72.3842 241° Southwest 425 489 32,000  Level Boston Center
Tue 07:48:01 AM 42.0064 -72.5211 240° Southwest 425 489 32,000  Level Boston Center
Tue 07:49:02 AM 41.9500 -72.6494 239° Southwest 419 482 32,000  Level Boston Center
Tue 07:50:04 AM 41.8914 -72.7886 241° Southwest 419 482 32,000  Level Boston Center
Tue 07:51:01 AM 41.8303 -72.9250 239° Southwest 424 488 32,000  Level Boston Center
Tue 07:52:02 AM 41.7672 -73.0664 239° Southwest 435 501 32,000  Level Boston Center
Tue 07:53:03 AM 41.6914 -73.1933 231° Southwest 447 514 32,000  Level Boston Center
Tue 07:54:01 AM 41.6175 -73.3203 232° Southwest 447 514 32,000  Level Boston Center
Tue 07:55:43 AM 41.5006 -73.5108 231° Southwest 420 483 32,000  Level New York Center
Tue 07:56:43 AM 41.4267 -73.6378 232° Southwest 427 491 32,000  Level New York Center
Tue 07:57:43 AM 41.3508 -73.7589 230° Southwest 432 497 32,000  Level New York Center
Tue 07:58:44 AM 41.2767 -73.8853 232° Southwest 437 503 32,000  Level New York Center
Tue 07:59:41 AM 41.2006 -74.0111 231° Southwest 437 503 32,000  Level New York Center
Tue 08:00:44 AM 41.1242 -74.1369 231° Southwest 437 503 32,000  Level New York Center
Tue 08:01:42 AM 41.0456 -74.2542 228° Southwest 432 497 32,000  Level New York Center
Tue 08:02:42 AM 40.9692 -74.3767 230° Southwest 439 505 32,000  Level New York Center
Tue 08:03:43 AM 40.8944 -74.4989 231° Southwest 439 505 32,000  Level New York Center
Tue 08:04:41 AM 40.8178 -74.6181 230° Southwest 439 505 32,000  Level New York Center
Tue 08:05:42 AM 40.7447 -74.7428 232° Southwest 439 505 32,000  Level New York Center
Tue 08:06:43 AM 40.6697 -74.8669 231° Southwest 433 498 32,000  Level New York Center
Tue 08:07:43 AM 40.5947 -74.9856 230° Southwest 433 498 32,000  Level New York Center
Tue 08:08:44 AM 40.5175 -75.1061 230° Southwest 433 498 32,000  Level New York Center
Tue 08:09:44 AM 40.4400 -75.2269 230° Southwest 433 498 32,000  Level New York Center
Tue 08:10:44 AM 40.3644 -75.3472 231° Southwest 433 498 32,000  Level New York Center
Tue 08:11:44 AM 40.2867 -75.4700 230° Southwest 433 498 32,000  Level New York Center
Tue 08:12:43 AM 40.2108 -75.5925 231° Southwest 433 498 32,000  Level New York Center
Tue 08:13:44 AM 40.1431 -75.7208 235° Southwest 433 498 32,000 151 Level New York Center
Tue 08:14:42 AM 40.0814 -75.8494 238° Southwest 428 493 32,300 605 Climbing New York Center
Tue 08:15:43 AM 40.0172 -75.9778 237° Southwest 423 487 33,200 750 Climbing New York Center
Tue 08:16:42 AM 39.9531 -76.1083 237° Southwest 423 487 33,800 403 Climbing New York Center
Tue 08:17:42 AM 39.8758 -76.2486 234° Southwest 423 487 34,000 86 Climbing New York Center
Tue 08:19:02 AM 39.7919 -76.4150 237° Southwest 427 491 34,000  Level Washington Center
Tue 08:20:02 AM 39.7286 -76.5303 234° Southwest 432 497 34,000  Level Washington Center
Tue 08:21:03 AM 39.6631 -76.6589 237° Southwest 437 503 34,000  Level Washington Center
Tue 08:22:03 AM 39.5994 -76.7847 237° Southwest 437 503 34,000  Level Washington Center
Tue 08:23:03 AM 39.5314 -76.9125 235° Southwest 437 503 34,000  Level Washington Center
Tue 08:24:02 AM 39.4508 -77.0267 228° Southwest 437 503 34,000  Level Washington Center
Tue 08:25:02 AM 39.3581 -77.1269 220° Southwest 437 503 34,000  Level Washington Center
Tue 08:26:03 AM 39.2628 -77.2267 219° Southwest 443 510 34,000  Level Washington Center
Tue 08:27:01 AM 39.1678 -77.3264 219° Southwest 443 510 34,000  Level Washington Center
Tue 08:28:02 AM 39.0725 -77.4231 218° Southwest 449 517 34,000  Level Washington Center
Tue 08:29:02 AM 38.9792 -77.5194 219° Southwest 449 517 34,000  Level Washington Center
Tue 08:30:03 AM 38.8817 -77.6211 219° Southwest 454 522 34,000  Level Washington Center
Tue 08:31:01 AM 38.7736 -77.7297 218° Southwest 454 522 34,000  Level Washington Center
Tue 08:32:03 AM 38.6800 -77.8283 219° Southwest 453 521 34,000  Level Washington Center
Tue 08:33:03 AM 38.5986 -77.9400 227° Southwest 437 503 34,000  Level Washington Center
Tue 08:34:01 AM 38.5275 -78.0597 233° Southwest 431 496 34,000  Level Washington Center
Tue 08:35:01 AM 38.4581 -78.1794 233° Southwest 431 496 34,000  Level Washington Center
Tue 08:36:03 AM 38.3867 -78.2989 233° Southwest 431 496 34,000  Level Washington Center
Tue 08:37:03 AM 38.3131 -78.4178 232° Southwest 431 496 34,000  Level Washington Center
Tue 08:38:01 AM 38.2475 -78.5397 236° Southwest 431 496 34,000  Level Washington Center
Tue 08:39:02 AM 38.1758 -78.6611 233° Southwest 431 496 34,000  Level Washington Center
Tue 08:40:03 AM 38.1106 -78.7667 232° Southwest 426 490 34,000  Level Washington Center
Tue 08:41:03 AM 38.0383 -78.8875 233° Southwest 432 497 34,000  Level Washington Center
Tue 08:42:01 AM 37.9642 -79.0081 232° Southwest 432 497 34,000  Level Washington Center
Tue 08:43:01 AM 37.8811 -79.1383 231° Southwest 437 503 34,000  Level Washington Center
Tue 08:44:01 AM 37.8006 -79.2503 228° Southwest 437 503 34,000  Level Washington Center
Tue 08:45:03 AM 37.7197 -79.3644 228° Southwest 442 509 34,000  Level Washington Center
Tue 08:46:03 AM 37.6328 -79.4781 226° Southwest 454 522 34,000  Level Washington Center
Tue 08:47:02 AM 37.5583 -79.5817 228° Southwest 454 522 34,000  Level Washington Center
Tue 08:48:02 AM 37.4644 -79.7078 227° Southwest 454 522 34,000  Level Washington Center
Tue 08:49:03 AM 37.3789 -79.8286 228° Southwest 454 522 34,000  Level Washington Center
Tue 08:50:03 AM 37.2953 -79.9439 228° Southwest 454 522 34,000  Level Washington Center
Tue 08:52:03 AM 37.1317 -80.1650 227° Southwest 453 521 34,000  Level Atlanta Center
Tue 08:53:03 AM 37.0375 -80.2919 227° Southwest 453 521 34,000  Level Atlanta Center
Tue 08:54:03 AM 36.9492 -80.4078 226° Southwest 460 529 34,000  Level Atlanta Center
Tue 08:55:03 AM 36.8650 -80.5181 226° Southwest 460 529 34,000  Level Atlanta Center
Tue 08:56:03 AM 36.7764 -80.6361 227° Southwest 460 529 34,000  Level Atlanta Center
Tue 08:57:03 AM 36.7042 -80.7375 228° Southwest 455 524 34,000  Level Atlanta Center
Tue 08:58:03 AM 36.6175 -80.8497 226° Southwest 455 524 34,000  Level Atlanta Center
Tue 08:59:03 AM 36.5306 -80.9617 226° Southwest 455 524 34,000  Level Atlanta Center
Tue 09:00:03 AM 36.4397 -81.0839 227° Southwest 455 524 34,000  Level Atlanta Center
Tue 09:01:03 AM 36.3550 -81.1953 227° Southwest 449 517 34,000  Level Atlanta Center
Tue 09:02:03 AM 36.2739 -81.3036 227° Southwest 438 504 34,000  Level Atlanta Center
Tue 09:03:03 AM 36.1886 -81.4094 225° Southwest 432 497 34,000  Level Atlanta Center
Tue 09:04:03 AM 36.1075 -81.5228 228° Southwest 432 497 34,000  Level Atlanta Center
Tue 09:05:03 AM 36.0261 -81.6278 226° Southwest 437 503 34,000  Level Atlanta Center
Tue 09:06:03 AM 35.9408 -81.7381 226° Southwest 437 503 34,000  Level Atlanta Center
Tue 09:07:03 AM 35.8553 -81.8508 227° Southwest 437 503 34,000  Level Atlanta Center
Tue 09:08:03 AM 35.7672 -81.9556 224° Southwest 437 503 34,000  Level Atlanta Center
Tue 09:09:03 AM 35.6794 -82.0675 226° Southwest 437 503 34,000  Level Atlanta Center
Tue 09:10:03 AM 35.5936 -82.1794 227° Southwest 442 509 34,000  Level Atlanta Center
Tue 09:11:03 AM 35.5056 -82.2836 224° Southwest 442 509 34,000 -250 Level Atlanta Center
Tue 09:12:03 AM 35.4150 -82.3822 222° Southwest 442 509 33,500 -1,050 Descending Atlanta Center
Tue 09:13:03 AM 35.3267 -82.4833 223° Southwest 442 509 31,900 -1,550 Descending Atlanta Center
Tue 09:14:03 AM 35.2442 -82.5764 223° Southwest 442 509 30,400 -1,450 Descending Atlanta Center
Tue 09:15:03 AM 35.1556 -82.6719 221° Southwest 436 502 29,000 -1,450 Descending Atlanta Center
Tue 09:16:03 AM 35.0628 -82.7750 222° Southwest 442 509 27,500 -1,650 Descending Atlanta Center
Tue 09:17:03 AM 34.9700 -82.8778 222° Southwest 442 509 25,700 -1,500 Descending Atlanta Center
Tue 09:18:03 AM 34.8769 -82.9753 221° Southwest 442 509 24,500 -850 Descending Atlanta Center
Tue 09:19:03 AM 34.7881 -83.0753 223° Southwest 442 509 24,000 -250 Descending Atlanta Center
Tue 09:20:03 AM 34.7011 -83.1722 223° Southwest 436 502 24,000 -500 Level Atlanta Center
Tue 09:21:03 AM 34.6119 -83.2717 223° Southwest 436 502 23,000 -1,500 Descending Atlanta Center
Tue 09:22:03 AM 34.5250 -83.3681 222° Southwest 436 502 21,000 -2,200 Descending Atlanta Center
Tue 09:23:03 AM 34.4317 -83.4672 221° Southwest 419 482 18,600 -2,650 Descending Atlanta Center
Tue 09:24:03 AM 34.3483 -83.5558 221° Southwest 414 476 15,700 -2,188 Descending Atlanta Center
Tue 09:26:04 AM 34.1833 -83.7333 222° Southwest 367 422 12,000 -1,233 Descending Atlanta TRACON
Tue 09:27:03 AM 34.1239 -83.8031 224° Southwest 351 404 12,000 -101 Level Atlanta Center
Tue 09:28:03 AM 34.0614 -83.8733 223° Southwest 316 364 11,800 -645 Descending Atlanta Center
Tue 09:29:04 AM 34.0000 -83.9333 219° Southwest 297 342 10,700 -893 Descending Atlanta TRACON
Tue 09:30:04 AM 33.9167 -83.9667 198° South 304 350 10,000 -555 Descending Atlanta TRACON
Tue 09:31:03 AM 33.8464 -83.9739 185° South 294 338 9,600 -807 Descending Atlanta Center
Tue 09:32:03 AM 33.7628 -83.9714 179° South 300 345 8,400 -1,250 Descending Atlanta Center
Tue 09:33:03 AM 33.6836 -83.9639 175° South 300 345 7,100 -1,000 Descending Atlanta Center
Tue 09:34:03 AM 33.6314 -84.0189 221° Southwest 229 264 6,400 -762 Descending Atlanta Center
Tue 09:36:04 AM 33.6333 -84.1833 271° West 216 249 4,800 -928 Descending Atlanta TRACON
Tue 09:37:04 AM 33.6333 -84.2500 270° West 213 245 3,600 -1,095 Descending Atlanta TRACON
Tue 09:38:10 AM 33.6333 -84.3333 270° West 211 243 2,500 -1,000 Descending Atlanta TRACON
Tue 09:39:04 AM 33.6333 -84.3833 270° West 173 199 1,600 -1,000 Descending Atlanta TRACON

Login

Don't have an account? Register now (free) for customized features, flight alerts, and more!